sensor_id;sensor_type;location;lat;lon;timestamp;P1;durP1;ratioP1;P2;durP2;ratioP2
46447;SDS011;32145;50.390;30.778;2022-07-30T00:01:18;7.28;;;3.63;;
46447;SDS011;32145;50.390;30.778;2022-07-30T00:04:02;7.15;;;4.10;;
46447;SDS011;32145;50.390;30.778;2022-07-30T00:06:48;11.27;;;4.25;;
46447;SDS011;32145;50.390;30.778;2022-07-30T00:09:32;6.10;;;4.13;;
46447;SDS011;32145;50.390;30.778;2022-07-30T00:12:17;5.97;;;3.65;;
46447;SDS011;32145;50.390;30.778;2022-07-30T00:15:01;8.35;;;4.28;;
46447;SDS011;32145;50.390;30.778;2022-07-30T00:17:45;6.22;;;3.90;;
46447;SDS011;32145;50.390;30.778;2022-07-30T00:20:29;6.20;;;4.15;;
46447;SDS011;32145;50.390;30.778;2022-07-30T00:23:15;6.53;;;3.70;;
46447;SDS011;32145;50.390;30.778;2022-07-30T00:25:59;6.72;;;3.72;;
46447;SDS011;32145;50.390;30.778;2022-07-30T00:28:43;6.40;;;4.03;;
46447;SDS011;32145;50.390;30.778;2022-07-30T00:31:28;8.95;;;3.92;;
46447;SDS011;32145;50.390;30.778;2022-07-30T00:34:11;6.93;;;4.43;;
46447;SDS011;32145;50.390;30.778;2022-07-30T00:36:55;5.93;;;3.88;;
46447;SDS011;32145;50.390;30.778;2022-07-30T00:39:41;5.05;;;3.80;;
46447;SDS011;32145;50.390;30.778;2022-07-30T00:42:34;9.13;;;4.45;;
46447;SDS011;32145;50.390;30.778;2022-07-30T00:45:20;4.95;;;3.97;;
46447;SDS011;32145;50.390;30.778;2022-07-30T00:48:04;6.65;;;3.75;;
46447;SDS011;32145;50.390;30.778;2022-07-30T00:50:48;6.25;;;3.72;;
46447;SDS011;32145;50.390;30.778;2022-07-30T00:53:32;5.75;;;3.90;;
46447;SDS011;32145;50.390;30.778;2022-07-30T00:56:18;5.35;;;4.38;;
46447;SDS011;32145;50.390;30.778;2022-07-30T00:59:03;7.60;;;4.40;;
46447;SDS011;32145;50.390;30.778;2022-07-30T01:01:47;5.63;;;4.35;;
46447;SDS011;32145;50.390;30.778;2022-07-30T01:04:31;11.40;;;4.40;;
46447;SDS011;32145;50.390;30.778;2022-07-30T01:07:15;7.82;;;4.32;;
46447;SDS011;32145;50.390;30.778;2022-07-30T01:09:59;5.90;;;4.47;;
46447;SDS011;32145;50.390;30.778;2022-07-30T01:12:44;6.65;;;4.20;;
46447;SDS011;32145;50.390;30.778;2022-07-30T01:15:29;7.28;;;4.60;;
46447;SDS011;32145;50.390;30.778;2022-07-30T01:18:13;5.95;;;4.25;;
46447;SDS011;32145;50.390;30.778;2022-07-30T01:21:01;7.05;;;4.28;;
46447;SDS011;32145;50.390;30.778;2022-07-30T01:23:50;5.38;;;4.18;;
46447;SDS011;32145;50.390;30.778;2022-07-30T01:26:40;6.95;;;4.32;;
46447;SDS011;32145;50.390;30.778;2022-07-30T01:29:24;7.32;;;4.43;;
46447;SDS011;32145;50.390;30.778;2022-07-30T01:32:11;6.43;;;4.25;;
46447;SDS011;32145;50.390;30.778;2022-07-30T01:34:57;8.88;;;4.30;;
46447;SDS011;32145;50.390;30.778;2022-07-30T01:37:43;5.93;;;4.38;;
46447;SDS011;32145;50.390;30.778;2022-07-30T01:40:29;5.60;;;4.32;;
46447;SDS011;32145;50.390;30.778;2022-07-30T01:43:16;6.80;;;4.20;;
46447;SDS011;32145;50.390;30.778;2022-07-30T01:46:01;7.95;;;4.38;;
46447;SDS011;32145;50.390;30.778;2022-07-30T01:48:46;8.00;;;4.50;;
46447;SDS011;32145;50.390;30.778;2022-07-30T01:51:31;8.13;;;4.78;;
46447;SDS011;32145;50.390;30.778;2022-07-30T01:54:17;5.35;;;4.38;;
46447;SDS011;32145;50.390;30.778;2022-07-30T01:57:03;5.85;;;4.13;;
46447;SDS011;32145;50.390;30.778;2022-07-30T01:59:51;8.63;;;4.53;;
46447;SDS011;32145;50.390;30.778;2022-07-30T02:02:40;5.60;;;4.38;;
46447;SDS011;32145;50.390;30.778;2022-07-30T02:05:24;6.82;;;4.47;;
46447;SDS011;32145;50.390;30.778;2022-07-30T02:08:11;6.38;;;4.32;;
46447;SDS011;32145;50.390;30.778;2022-07-30T02:11:00;6.30;;;4.35;;
46447;SDS011;32145;50.390;30.778;2022-07-30T02:13:49;6.03;;;4.18;;
46447;SDS011;32145;50.390;30.778;2022-07-30T02:16:38;7.75;;;4.13;;
46447;SDS011;32145;50.390;30.778;2022-07-30T02:19:25;6.03;;;4.20;;
46447;SDS011;32145;50.390;30.778;2022-07-30T02:22:15;11.35;;;4.72;;
46447;SDS011;32145;50.390;30.778;2022-07-30T02:25:02;6.53;;;4.25;;
46447;SDS011;32145;50.390;30.778;2022-07-30T02:27:49;8.07;;;4.35;;
46447;SDS011;32145;50.390;30.778;2022-07-30T02:30:37;6.45;;;4.38;;
46447;SDS011;32145;50.390;30.778;2022-07-30T02:33:30;7.32;;;4.57;;
46447;SDS011;32145;50.390;30.778;2022-07-30T02:36:18;7.80;;;4.22;;
46447;SDS011;32145;50.390;30.778;2022-07-30T02:39:03;8.43;;;4.95;;
46447;SDS011;32145;50.390;30.778;2022-07-30T02:41:48;6.15;;;4.47;;
46447;SDS011;32145;50.390;30.778;2022-07-30T02:44:33;6.47;;;4.40;;
46447;SDS011;32145;50.390;30.778;2022-07-30T02:47:21;6.38;;;4.65;;
46447;SDS011;32145;50.390;30.778;2022-07-30T02:50:09;8.02;;;5.00;;
46447;SDS011;32145;50.390;30.778;2022-07-30T02:52:55;5.65;;;4.55;;
46447;SDS011;32145;50.390;30.778;2022-07-30T02:55:42;9.15;;;4.55;;
46447;SDS011;32145;50.390;30.778;2022-07-30T02:58:27;11.25;;;4.43;;
46447;SDS011;32145;50.390;30.778;2022-07-30T03:01:14;9.48;;;4.57;;
46447;SDS011;32145;50.390;30.778;2022-07-30T03:03:58;5.72;;;4.80;;
46447;SDS011;32145;50.390;30.778;2022-07-30T03:06:45;8.70;;;4.90;;
46447;SDS011;32145;50.390;30.778;2022-07-30T03:09:31;6.05;;;4.40;;
46447;SDS011;32145;50.390;30.778;2022-07-30T03:12:16;7.72;;;4.90;;
46447;SDS011;32145;50.390;30.778;2022-07-30T03:15:02;6.10;;;4.63;;
46447;SDS011;32145;50.390;30.778;2022-07-30T03:17:47;8.23;;;4.60;;
46447;SDS011;32145;50.390;30.778;2022-07-30T03:20:35;8.98;;;4.80;;
46447;SDS011;32145;50.390;30.778;2022-07-30T03:23:22;6.88;;;4.90;;
46447;SDS011;32145;50.390;30.778;2022-07-30T03:26:07;6.32;;;4.25;;
46447;SDS011;32145;50.390;30.778;2022-07-30T03:28:52;6.45;;;4.50;;
46447;SDS011;32145;50.390;30.778;2022-07-30T03:31:37;7.05;;;4.53;;
46447;SDS011;32145;50.390;30.778;2022-07-30T03:34:22;6.80;;;4.88;;
46447;SDS011;32145;50.390;30.778;2022-07-30T03:37:07;7.57;;;4.60;;
46447;SDS011;32145;50.390;30.778;2022-07-30T03:39:53;6.43;;;4.53;;
46447;SDS011;32145;50.390;30.778;2022-07-30T03:42:39;8.63;;;5.00;;
46447;SDS011;32145;50.390;30.778;2022-07-30T03:45:23;7.03;;;5.00;;
46447;SDS011;32145;50.390;30.778;2022-07-30T03:48:08;10.45;;;5.07;;
46447;SDS011;32145;50.390;30.778;2022-07-30T03:50:54;11.45;;;4.97;;
46447;SDS011;32145;50.390;30.778;2022-07-30T03:53:39;8.73;;;4.90;;
46447;SDS011;32145;50.390;30.778;2022-07-30T03:56:25;8.20;;;5.28;;
46447;SDS011;32145;50.390;30.778;2022-07-30T03:59:09;8.98;;;5.30;;
46447;SDS011;32145;50.390;30.778;2022-07-30T04:01:58;8.88;;;5.30;;
46447;SDS011;32145;50.390;30.778;2022-07-30T04:04:43;9.93;;;5.05;;
46447;SDS011;32145;50.390;30.778;2022-07-30T04:07:26;7.13;;;5.13;;
46447;SDS011;32145;50.390;30.778;2022-07-30T04:10:10;9.32;;;5.05;;
46447;SDS011;32145;50.390;30.778;2022-07-30T04:12:57;7.82;;;5.18;;
46447;SDS011;32145;50.390;30.778;2022-07-30T04:15:42;7.50;;;5.45;;
46447;SDS011;32145;50.390;30.778;2022-07-30T04:18:36;7.68;;;4.80;;
46447;SDS011;32145;50.390;30.778;2022-07-30T04:21:25;7.75;;;5.47;;
46447;SDS011;32145;50.390;30.778;2022-07-30T04:24:11;10.70;;;5.22;;
46447;SDS011;32145;50.390;30.778;2022-07-30T04:26:57;10.45;;;5.38;;
46447;SDS011;32145;50.390;30.778;2022-07-30T04:29:44;8.82;;;5.53;;
46447;SDS011;32145;50.390;30.778;2022-07-30T04:32:29;6.95;;;5.45;;
46447;SDS011;32145;50.390;30.778;2022-07-30T04:35:14;11.98;;;5.57;;
46447;SDS011;32145;50.390;30.778;2022-07-30T04:37:58;9.32;;;4.70;;
46447;SDS011;32145;50.390;30.778;2022-07-30T04:40:43;12.68;;;5.18;;
46447;SDS011;32145;50.390;30.778;2022-07-30T04:43:27;11.68;;;5.25;;
46447;SDS011;32145;50.390;30.778;2022-07-30T04:46:12;7.85;;;5.22;;
46447;SDS011;32145;50.390;30.778;2022-07-30T04:48:57;9.20;;;5.25;;
46447;SDS011;32145;50.390;30.778;2022-07-30T04:51:41;8.20;;;5.22;;
46447;SDS011;32145;50.390;30.778;2022-07-30T04:54:26;11.77;;;6.15;;
46447;SDS011;32145;50.390;30.778;2022-07-30T04:57:17;7.00;;;4.90;;
46447;SDS011;32145;50.390;30.778;2022-07-30T05:00:02;7.32;;;4.80;;
46447;SDS011;32145;50.390;30.778;2022-07-30T05:02:49;8.02;;;4.38;;
46447;SDS011;32145;50.390;30.778;2022-07-30T06:27:33;7.32;;;2.28;;
46447;SDS011;32145;50.390;30.778;2022-07-30T06:30:18;4.90;;;2.70;;
46447;SDS011;32145;50.390;30.778;2022-07-30T06:33:02;5.32;;;2.25;;
46447;SDS011;32145;50.390;30.778;2022-07-30T06:35:46;5.15;;;2.45;;
46447;SDS011;32145;50.390;30.778;2022-07-30T06:38:30;4.53;;;2.53;;
46447;SDS011;32145;50.390;30.778;2022-07-30T06:41:14;6.60;;;2.63;;
46447;SDS011;32145;50.390;30.778;2022-07-30T06:43:59;8.77;;;2.28;;
46447;SDS011;32145;50.390;30.778;2022-07-30T06:46:43;4.65;;;2.47;;
46447;SDS011;32145;50.390;30.778;2022-07-30T06:49:29;5.40;;;2.30;;
46447;SDS011;32145;50.390;30.778;2022-07-30T11:02:33;3.95;;;2.25;;
46447;SDS011;32145;50.390;30.778;2022-07-30T11:05:23;5.03;;;2.47;;
46447;SDS011;32145;50.390;30.778;2022-07-30T11:08:27;7.10;;;2.20;;
46447;SDS011;32145;50.390;30.778;2022-07-30T11:21:11;5.03;;;2.15;;
46447;SDS011;32145;50.390;30.778;2022-07-30T11:24:01;6.15;;;2.20;;
46447;SDS011;32145;50.390;30.778;2022-07-30T11:26:46;7.18;;;2.20;;
46447;SDS011;32145;50.390;30.778;2022-07-30T11:29:37;5.20;;;2.13;;
46447;SDS011;32145;50.390;30.778;2022-07-30T11:32:24;3.80;;;2.22;;
46447;SDS011;32145;50.390;30.778;2022-07-30T11:35:12;2.88;;;2.00;;
46447;SDS011;32145;50.390;30.778;2022-07-30T11:38:02;3.97;;;2.50;;
46447;SDS011;32145;50.390;30.778;2022-07-30T11:47:11;3.28;;;2.13;;
46447;SDS011;32145;50.390;30.778;2022-07-30T11:49:55;3.55;;;2.25;;
46447;SDS011;32145;50.390;30.778;2022-07-30T11:52:41;5.75;;;2.10;;
46447;SDS011;32145;50.390;30.778;2022-07-30T11:55:27;6.25;;;2.50;;
46447;SDS011;32145;50.390;30.778;2022-07-30T11:58:23;5.90;;;2.20;;
46447;SDS011;32145;50.390;30.778;2022-07-30T12:01:11;6.63;;;2.10;;
46447;SDS011;32145;50.390;30.778;2022-07-30T12:03:55;5.32;;;2.05;;
46447;SDS011;32145;50.390;30.778;2022-07-30T12:06:43;4.72;;;2.10;;
46447;SDS011;32145;50.390;30.778;2022-07-30T12:09:29;3.83;;;1.92;;
46447;SDS011;32145;50.390;30.778;2022-07-30T12:12:19;4.22;;;2.08;;
46447;SDS011;32145;50.390;30.778;2022-07-30T12:15:04;7.35;;;2.10;;
46447;SDS011;32145;50.390;30.778;2022-07-30T12:17:48;4.13;;;1.92;;
46447;SDS011;32145;50.390;30.778;2022-07-30T12:20:32;4.53;;;1.92;;
46447;SDS011;32145;50.390;30.778;2022-07-30T12:23:17;3.58;;;1.80;;
46447;SDS011;32145;50.390;30.778;2022-07-30T12:26:02;4.70;;;2.15;;
46447;SDS011;32145;50.390;30.778;2022-07-30T12:28:47;5.53;;;2.00;;
46447;SDS011;32145;50.390;30.778;2022-07-30T12:31:32;5.13;;;1.90;;
46447;SDS011;32145;50.390;30.778;2022-07-30T12:34:20;3.72;;;2.00;;
46447;SDS011;32145;50.390;30.778;2022-07-30T12:37:05;5.68;;;2.35;;
46447;SDS011;32145;50.390;30.778;2022-07-30T12:40:03;3.97;;;2.10;;
46447;SDS011;32145;50.390;30.778;2022-07-30T12:42:50;4.78;;;2.22;;
46447;SDS011;32145;50.390;30.778;2022-07-30T12:45:35;4.30;;;2.10;;
46447;SDS011;32145;50.390;30.778;2022-07-30T12:48:19;5.57;;;2.50;;
46447;SDS011;32145;50.390;30.778;2022-07-30T12:51:03;5.00;;;2.10;;
46447;SDS011;32145;50.390;30.778;2022-07-30T12:53:48;4.55;;;2.05;;
46447;SDS011;32145;50.390;30.778;2022-07-30T12:56:32;12.40;;;2.20;;
46447;SDS011;32145;50.390;30.778;2022-07-30T12:59:20;9.35;;;2.40;;
46447;SDS011;32145;50.390;30.778;2022-07-30T13:02:04;6.75;;;2.10;;
46447;SDS011;32145;50.390;30.778;2022-07-30T13:04:49;3.72;;;2.17;;
46447;SDS011;32145;50.390;30.778;2022-07-30T13:07:33;4.13;;;2.10;;
46447;SDS011;32145;50.390;30.778;2022-07-30T13:10:17;3.88;;;2.20;;
46447;SDS011;32145;50.390;30.778;2022-07-30T13:13:01;3.15;;;1.90;;
46447;SDS011;32145;50.390;30.778;2022-07-30T13:15:50;4.85;;;2.58;;
46447;SDS011;32145;50.390;30.778;2022-07-30T13:18:40;4.03;;;2.00;;
46447;SDS011;32145;50.390;30.778;2022-07-30T13:21:24;4.03;;;2.17;;
46447;SDS011;32145;50.390;30.778;2022-07-30T13:24:08;4.22;;;2.00;;
46447;SDS011;32145;50.390;30.778;2022-07-30T13:26:52;3.60;;;1.98;;
46447;SDS011;32145;50.390;30.778;2022-07-30T13:29:36;3.30;;;2.08;;
46447;SDS011;32145;50.390;30.778;2022-07-30T13:32:21;3.70;;;2.25;;
46447;SDS011;32145;50.390;30.778;2022-07-30T13:35:06;6.25;;;2.13;;
46447;SDS011;32145;50.390;30.778;2022-07-30T13:37:50;4.07;;;2.25;;
46447;SDS011;32145;50.390;30.778;2022-07-30T13:40:34;7.95;;;2.20;;
46447;SDS011;32145;50.390;30.778;2022-07-30T13:43:18;10.50;;;2.47;;
46447;SDS011;32145;50.390;30.778;2022-07-30T13:46:03;5.80;;;2.30;;
46447;SDS011;32145;50.390;30.778;2022-07-30T13:48:49;6.68;;;2.17;;
46447;SDS011;32145;50.390;30.778;2022-07-30T13:51:33;6.43;;;2.30;;
46447;SDS011;32145;50.390;30.778;2022-07-30T13:54:17;3.95;;;2.30;;
46447;SDS011;32145;50.390;30.778;2022-07-30T13:57:01;3.83;;;2.15;;
46447;SDS011;32145;50.390;30.778;2022-07-30T13:59:46;4.20;;;2.00;;
46447;SDS011;32145;50.390;30.778;2022-07-30T14:02:30;4.13;;;2.20;;
46447;SDS011;32145;50.390;30.778;2022-07-30T14:05:16;3.83;;;2.20;;
46447;SDS011;32145;50.390;30.778;2022-07-30T14:08:00;5.38;;;2.08;;
46447;SDS011;32145;50.390;30.778;2022-07-30T14:10:45;4.68;;;1.92;;
46447;SDS011;32145;50.390;30.778;2022-07-30T14:13:29;4.90;;;2.10;;
46447;SDS011;32145;50.390;30.778;2022-07-30T14:16:13;6.60;;;1.80;;
46447;SDS011;32145;50.390;30.778;2022-07-30T14:18:56;4.40;;;2.75;;
46447;SDS011;32145;50.390;30.778;2022-07-30T14:21:42;6.90;;;2.05;;
46447;SDS011;32145;50.390;30.778;2022-07-30T14:24:27;6.50;;;2.00;;
46447;SDS011;32145;50.390;30.778;2022-07-30T14:27:11;5.68;;;2.20;;
46447;SDS011;32145;50.390;30.778;2022-07-30T14:29:55;3.67;;;2.00;;
46447;SDS011;32145;50.390;30.778;2022-07-30T14:32:39;5.45;;;2.03;;
46447;SDS011;32145;50.390;30.778;2022-07-30T14:35:24;6.97;;;2.10;;
46447;SDS011;32145;50.390;30.778;2022-07-30T14:38:10;6.93;;;2.33;;
46447;SDS011;32145;50.390;30.778;2022-07-30T14:40:54;5.68;;;2.33;;
46447;SDS011;32145;50.390;30.778;2022-07-30T14:43:38;3.60;;;2.13;;
46447;SDS011;32145;50.390;30.778;2022-07-30T14:46:22;6.43;;;2.38;;
46447;SDS011;32145;50.390;30.778;2022-07-30T14:49:06;4.53;;;2.38;;
46447;SDS011;32145;50.390;30.778;2022-07-30T14:51:50;5.47;;;2.10;;
46447;SDS011;32145;50.390;30.778;2022-07-30T14:54:36;4.53;;;2.25;;
46447;SDS011;32145;50.390;30.778;2022-07-30T14:57:21;4.85;;;2.60;;
46447;SDS011;32145;50.390;30.778;2022-07-30T15:00:05;4.60;;;2.70;;
46447;SDS011;32145;50.390;30.778;2022-07-30T15:02:50;3.50;;;2.20;;
46447;SDS011;32145;50.390;30.778;2022-07-30T15:05:34;4.20;;;2.20;;
46447;SDS011;32145;50.390;30.778;2022-07-30T15:08:18;4.03;;;2.10;;
46447;SDS011;32145;50.390;30.778;2022-07-30T15:11:03;7.18;;;2.40;;
46447;SDS011;32145;50.390;30.778;2022-07-30T15:13:48;3.17;;;2.10;;
46447;SDS011;32145;50.390;30.778;2022-07-30T15:16:32;5.65;;;2.13;;
46447;SDS011;32145;50.390;30.778;2022-07-30T15:19:16;8.88;;;2.70;;
46447;SDS011;32145;50.390;30.778;2022-07-30T15:22:01;6.13;;;2.30;;
46447;SDS011;32145;50.390;30.778;2022-07-30T15:24:45;4.95;;;2.33;;
46447;SDS011;32145;50.390;30.778;2022-07-30T15:27:30;5.43;;;2.10;;
46447;SDS011;32145;50.390;30.778;2022-07-30T15:30:15;3.65;;;2.17;;
46447;SDS011;32145;50.390;30.778;2022-07-30T15:32:59;8.77;;;2.40;;
46447;SDS011;32145;50.390;30.778;2022-07-30T15:35:43;5.90;;;2.30;;
46447;SDS011;32145;50.390;30.778;2022-07-30T15:38:27;5.45;;;2.90;;
46447;SDS011;32145;50.390;30.778;2022-07-30T15:41:11;4.28;;;2.15;;
46447;SDS011;32145;50.390;30.778;2022-07-30T15:43:56;6.63;;;2.40;;
46447;SDS011;32145;50.390;30.778;2022-07-30T15:46:40;5.18;;;1.95;;
46447;SDS011;32145;50.390;30.778;2022-07-30T15:49:24;6.03;;;2.38;;
46447;SDS011;32145;50.390;30.778;2022-07-30T15:52:09;6.45;;;2.35;;
46447;SDS011;32145;50.390;30.778;2022-07-30T15:54:54;4.53;;;2.17;;
46447;SDS011;32145;50.390;30.778;2022-07-30T15:57:38;3.92;;;2.20;;
46447;SDS011;32145;50.390;30.778;2022-07-30T16:00:23;3.65;;;1.85;;
46447;SDS011;32145;50.390;30.778;2022-07-30T16:03:08;4.50;;;2.55;;
46447;SDS011;32145;50.390;30.778;2022-07-30T16:05:52;4.45;;;2.78;;
46447;SDS011;32145;50.390;30.778;2022-07-30T16:08:36;6.25;;;2.20;;
46447;SDS011;32145;50.390;30.778;2022-07-30T16:11:20;9.77;;;2.22;;
46447;SDS011;32145;50.390;30.778;2022-07-30T16:14:04;11.45;;;2.47;;
46447;SDS011;32145;50.390;30.778;2022-07-30T16:16:50;6.13;;;2.38;;
46447;SDS011;32145;50.390;30.778;2022-07-30T16:19:34;5.25;;;2.47;;
46447;SDS011;32145;50.390;30.778;2022-07-30T16:22:18;4.72;;;2.30;;
46447;SDS011;32145;50.390;30.778;2022-07-30T16:25:02;5.82;;;2.42;;
46447;SDS011;32145;50.390;30.778;2022-07-30T16:27:47;4.20;;;2.35;;
46447;SDS011;32145;50.390;30.778;2022-07-30T16:30:31;3.70;;;2.10;;
46447;SDS011;32145;50.390;30.778;2022-07-30T16:33:17;4.90;;;2.30;;
46447;SDS011;32145;50.390;30.778;2022-07-30T16:36:02;5.47;;;2.83;;
46447;SDS011;32145;50.390;30.778;2022-07-30T16:38:46;5.25;;;2.50;;
46447;SDS011;32145;50.390;30.778;2022-07-30T16:41:30;8.52;;;2.60;;
46447;SDS011;32145;50.390;30.778;2022-07-30T16:44:14;4.75;;;2.45;;
46447;SDS011;32145;50.390;30.778;2022-07-30T16:46:58;5.90;;;2.63;;
46447;SDS011;32145;50.390;30.778;2022-07-30T16:49:44;3.53;;;2.20;;
46447;SDS011;32145;50.390;30.778;2022-07-30T16:52:29;5.45;;;2.53;;
46447;SDS011;32145;50.390;30.778;2022-07-30T16:55:12;6.63;;;2.70;;
46447;SDS011;32145;50.390;30.778;2022-07-30T16:57:56;5.93;;;2.72;;
46447;SDS011;32145;50.390;30.778;2022-07-30T17:00:40;5.45;;;2.42;;
46447;SDS011;32145;50.390;30.778;2022-07-30T17:03:24;6.65;;;2.90;;
46447;SDS011;32145;50.390;30.778;2022-07-30T17:06:10;6.22;;;2.75;;
46447;SDS011;32145;50.390;30.778;2022-07-30T17:08:54;8.38;;;2.97;;
46447;SDS011;32145;50.390;30.778;2022-07-30T17:11:38;4.95;;;2.72;;
46447;SDS011;32145;50.390;30.778;2022-07-30T17:14:22;5.35;;;2.80;;
46447;SDS011;32145;50.390;30.778;2022-07-30T17:17:06;6.88;;;2.80;;
46447;SDS011;32145;50.390;30.778;2022-07-30T17:19:50;8.07;;;2.70;;
46447;SDS011;32145;50.390;30.778;2022-07-30T17:22:35;5.38;;;2.85;;
46447;SDS011;32145;50.390;30.778;2022-07-30T17:25:19;6.25;;;2.70;;
46447;SDS011;32145;50.390;30.778;2022-07-30T17:28:03;4.13;;;2.50;;
46447;SDS011;32145;50.390;30.778;2022-07-30T17:30:47;6.82;;;2.70;;
46447;SDS011;32145;50.390;30.778;2022-07-30T17:33:31;5.82;;;3.08;;
46447;SDS011;32145;50.390;30.778;2022-07-30T17:36:15;8.45;;;2.88;;
46447;SDS011;32145;50.390;30.778;2022-07-30T17:39:01;5.03;;;3.03;;
46447;SDS011;32145;50.390;30.778;2022-07-30T17:41:45;6.65;;;3.00;;
46447;SDS011;32145;50.390;30.778;2022-07-30T17:44:29;14.00;;;2.88;;
46447;SDS011;32145;50.390;30.778;2022-07-30T17:47:13;6.43;;;3.20;;
46447;SDS011;32145;50.390;30.778;2022-07-30T17:49:57;5.35;;;2.80;;
46447;SDS011;32145;50.390;30.778;2022-07-30T17:52:43;10.50;;;3.15;;
46447;SDS011;32145;50.390;30.778;2022-07-30T17:55:29;5.82;;;2.90;;
46447;SDS011;32145;50.390;30.778;2022-07-30T17:58:13;6.25;;;2.97;;
46447;SDS011;32145;50.390;30.778;2022-07-30T18:00:57;7.57;;;3.05;;
46447;SDS011;32145;50.390;30.778;2022-07-30T18:03:41;4.53;;;3.20;;
46447;SDS011;32145;50.390;30.778;2022-07-30T18:06:25;5.93;;;3.05;;
46447;SDS011;32145;50.390;30.778;2022-07-30T18:09:10;6.40;;;3.10;;
46447;SDS011;32145;50.390;30.778;2022-07-30T18:11:55;6.43;;;2.97;;
46447;SDS011;32145;50.390;30.778;2022-07-30T18:14:39;7.43;;;2.90;;
46447;SDS011;32145;50.390;30.778;2022-07-30T18:17:23;8.93;;;3.15;;
46447;SDS011;32145;50.390;30.778;2022-07-30T18:20:08;5.70;;;3.15;;
46447;SDS011;32145;50.390;30.778;2022-07-30T18:22:52;6.28;;;3.28;;
46447;SDS011;32145;50.390;30.778;2022-07-30T18:25:36;9.60;;;3.40;;
46447;SDS011;32145;50.390;30.778;2022-07-30T18:28:22;6.95;;;3.33;;
46447;SDS011;32145;50.390;30.778;2022-07-30T18:31:06;5.35;;;3.08;;
46447;SDS011;32145;50.390;30.778;2022-07-30T18:33:50;9.38;;;3.47;;
46447;SDS011;32145;50.390;30.778;2022-07-30T18:36:34;7.22;;;3.20;;
46447;SDS011;32145;50.390;30.778;2022-07-30T18:39:18;6.38;;;3.28;;
46447;SDS011;32145;50.390;30.778;2022-07-30T18:42:02;7.45;;;3.30;;
46447;SDS011;32145;50.390;30.778;2022-07-30T18:44:48;8.80;;;3.00;;
46447;SDS011;32145;50.390;30.778;2022-07-30T18:47:32;6.15;;;3.15;;
46447;SDS011;32145;50.390;30.778;2022-07-30T18:50:16;7.25;;;3.35;;
46447;SDS011;32145;50.390;30.778;2022-07-30T18:53:01;5.63;;;3.40;;
46447;SDS011;32145;50.390;30.778;2022-07-30T18:55:45;6.43;;;3.10;;
46447;SDS011;32145;50.390;30.778;2022-07-30T18:58:29;8.25;;;3.28;;
46447;SDS011;32145;50.390;30.778;2022-07-30T19:01:15;5.43;;;3.17;;
46447;SDS011;32145;50.390;30.778;2022-07-30T19:03:59;6.20;;;3.13;;
46447;SDS011;32145;50.390;30.778;2022-07-30T19:06:43;5.10;;;3.15;;
46447;SDS011;32145;50.390;30.778;2022-07-30T19:09:27;7.30;;;3.40;;
46447;SDS011;32145;50.390;30.778;2022-07-30T19:12:11;5.00;;;3.20;;
46447;SDS011;32145;50.390;30.778;2022-07-30T19:14:55;5.45;;;3.10;;
46447;SDS011;32145;50.390;30.778;2022-07-30T19:17:40;6.63;;;3.22;;
46447;SDS011;32145;50.390;30.778;2022-07-30T19:20:24;4.72;;;2.95;;
46447;SDS011;32145;50.390;30.778;2022-07-30T19:23:09;7.22;;;3.20;;
46447;SDS011;32145;50.390;30.778;2022-07-30T19:25:53;7.28;;;3.17;;
46447;SDS011;32145;50.390;30.778;2022-07-30T19:28:37;6.10;;;3.40;;
46447;SDS011;32145;50.390;30.778;2022-07-30T19:31:21;6.45;;;3.45;;
46447;SDS011;32145;50.390;30.778;2022-07-30T19:34:06;6.80;;;3.20;;
46447;SDS011;32145;50.390;30.778;2022-07-30T19:36:51;7.03;;;3.15;;
46447;SDS011;32145;50.390;30.778;2022-07-30T19:39:35;6.68;;;3.20;;
46447;SDS011;32145;50.390;30.778;2022-07-30T19:42:19;7.30;;;3.20;;
46447;SDS011;32145;50.390;30.778;2022-07-30T19:45:03;6.20;;;3.00;;
46447;SDS011;32145;50.390;30.778;2022-07-30T19:47:48;6.68;;;3.63;;
46447;SDS011;32145;50.390;30.778;2022-07-30T19:50:34;6.28;;;3.30;;
46447;SDS011;32145;50.390;30.778;2022-07-30T19:53:18;8.15;;;3.40;;
46447;SDS011;32145;50.390;30.778;2022-07-30T19:56:02;9.23;;;3.20;;
46447;SDS011;32145;50.390;30.778;2022-07-30T19:58:46;7.28;;;3.90;;
46447;SDS011;32145;50.390;30.778;2022-07-30T20:01:30;12.43;;;3.30;;
46447;SDS011;32145;50.390;30.778;2022-07-30T20:04:14;4.90;;;3.50;;
46447;SDS011;32145;50.390;30.778;2022-07-30T20:06:59;7.15;;;3.55;;
46447;SDS011;32145;50.390;30.778;2022-07-30T20:09:43;5.60;;;3.28;;
46447;SDS011;32145;50.390;30.778;2022-07-30T20:12:27;6.00;;;3.28;;
46447;SDS011;32145;50.390;30.778;2022-07-30T20:15:12;10.25;;;3.20;;
46447;SDS011;32145;50.390;30.778;2022-07-30T20:17:56;8.85;;;3.60;;
46447;SDS011;32145;50.390;30.778;2022-07-30T20:20:39;5.43;;;3.30;;
46447;SDS011;32145;50.390;30.778;2022-07-30T20:23:25;6.38;;;3.33;;
46447;SDS011;32145;50.390;30.778;2022-07-30T20:26:09;7.40;;;3.28;;
46447;SDS011;32145;50.390;30.778;2022-07-30T20:28:54;7.40;;;3.30;;
46447;SDS011;32145;50.390;30.778;2022-07-30T20:31:38;7.03;;;3.67;;
46447;SDS011;32145;50.390;30.778;2022-07-30T20:34:22;8.68;;;3.28;;
46447;SDS011;32145;50.390;30.778;2022-07-30T20:37:06;6.57;;;3.25;;
46447;SDS011;32145;50.390;30.778;2022-07-30T20:39:51;10.07;;;3.40;;
46447;SDS011;32145;50.390;30.778;2022-07-30T20:42:35;6.50;;;3.20;;
46447;SDS011;32145;50.390;30.778;2022-07-30T20:45:19;5.32;;;2.80;;
46447;SDS011;32145;50.390;30.778;2022-07-30T20:48:04;7.32;;;3.10;;
46447;SDS011;32145;50.390;30.778;2022-07-30T20:50:48;13.10;;;3.17;;
46447;SDS011;32145;50.390;30.778;2022-07-30T20:53:32;6.60;;;3.15;;
46447;SDS011;32145;50.390;30.778;2022-07-30T20:56:17;8.52;;;3.10;;
46447;SDS011;32145;50.390;30.778;2022-07-30T20:59:02;4.80;;;3.20;;
46447;SDS011;32145;50.390;30.778;2022-07-30T21:01:46;7.05;;;3.05;;
46447;SDS011;32145;50.390;30.778;2022-07-30T21:04:30;5.18;;;2.70;;
46447;SDS011;32145;50.390;30.778;2022-07-30T21:07:14;8.73;;;2.90;;
46447;SDS011;32145;50.390;30.778;2022-07-30T21:09:58;4.28;;;2.80;;
46447;SDS011;32145;50.390;30.778;2022-07-30T21:12:43;4.40;;;2.85;;
46447;SDS011;32145;50.390;30.778;2022-07-30T21:15:27;6.70;;;3.17;;
46447;SDS011;32145;50.390;30.778;2022-07-30T21:18:11;10.27;;;2.92;;
46447;SDS011;32145;50.390;30.778;2022-07-30T21:20:56;4.55;;;3.58;;
46447;SDS011;32145;50.390;30.778;2022-07-30T21:23:40;9.35;;;3.15;;
46447;SDS011;32145;50.390;30.778;2022-07-30T21:26:24;5.43;;;3.20;;
46447;SDS011;32145;50.390;30.778;2022-07-30T21:29:10;7.93;;;3.60;;
46447;SDS011;32145;50.390;30.778;2022-07-30T21:31:55;8.15;;;3.45;;
46447;SDS011;32145;50.390;30.778;2022-07-30T21:34:39;6.20;;;3.13;;
46447;SDS011;32145;50.390;30.778;2022-07-30T21:37:23;5.95;;;3.10;;
46447;SDS011;32145;50.390;30.778;2022-07-30T21:40:07;7.53;;;3.20;;
46447;SDS011;32145;50.390;30.778;2022-07-30T21:42:52;5.63;;;3.40;;
46447;SDS011;32145;50.390;30.778;2022-07-30T21:45:37;9.85;;;3.35;;
46447;SDS011;32145;50.390;30.778;2022-07-30T21:48:21;9.18;;;3.72;;
46447;SDS011;32145;50.390;30.778;2022-07-30T21:51:05;6.13;;;3.08;;
46447;SDS011;32145;50.390;30.778;2022-07-30T21:53:49;7.68;;;3.63;;
46447;SDS011;32145;50.390;30.778;2022-07-30T21:56:33;7.03;;;3.25;;
46447;SDS011;32145;50.390;30.778;2022-07-30T21:59:17;8.60;;;3.33;;
46447;SDS011;32145;50.390;30.778;2022-07-30T22:02:02;6.68;;;3.05;;
46447;SDS011;32145;50.390;30.778;2022-07-30T22:04:47;5.38;;;3.08;;
46447;SDS011;32145;50.390;30.778;2022-07-30T22:07:31;5.47;;;3.17;;